Time;durP1;ratioP1;P1;durP2;ratioP2;P2;SDS_P1;SDS_P2;PMS_P1;PMS_P2;Temp;Humidity;BMP_temperature;BMP_pressure;BME280_temperature;BME280_humidity;BME280_pressure;Samples;Min_cycle;Max_cycle;Signal;HPM_P1;HPM_P2
2021/10/03 00:01:21;;;;;;;1.88;1.45;;;16.50;99.90;;;;;;4934226;29;20028;-78
2021/10/03 00:03:49;;;;;;;4.32;1.83;;;16.50;99.90;;;;;;4933254;29;20396;-80
2021/10/03 00:06:17;;;;;;;2.45;1.30;;;16.50;99.90;;;;;;4932344;29;20102;-80
2021/10/03 00:08:42;;;;;;;2.83;1.33;;;16.50;99.90;;;;;;4932987;29;20044;-79
2021/10/03 00:11:08;;;;;;;2.63;2.05;;;16.60;99.90;;;;;;4934139;29;20050;-83
2021/10/03 00:13:34;;;;;;;1.17;1.08;;;16.60;99.90;;;;;;4932752;29;20498;-79
2021/10/03 00:16:02;;;;;;;3.35;1.00;;;16.60;99.90;;;;;;4929133;29;20024;-80
2021/10/03 00:18:28;;;;;;;1.50;1.10;;;16.60;99.90;;;;;;4928949;29;20123;-83
2021/10/03 00:20:54;;;;;;;1.08;1.00;;;16.60;99.90;;;;;;4934763;29;20067;-82
2021/10/03 00:23:21;;;;;;;1.35;1.25;;;16.60;99.90;;;;;;4939920;29;20086;-84
2021/10/03 00:25:47;;;;;;;3.17;1.30;;;16.60;99.90;;;;;;4924347;29;20039;-80
2021/10/03 00:28:13;;;;;;;1.38;1.08;;;16.60;99.90;;;;;;4933712;29;20753;-86
2021/10/03 00:30:43;;;;;;;1.45;1.17;;;16.70;99.90;;;;;;4931269;29;20052;-86
2021/10/03 00:33:09;;;;;;;3.28;1.10;;;16.60;99.90;;;;;;4932125;29;20035;-86
2021/10/03 00:35:35;;;;;;;3.83;1.30;;;16.70;99.90;;;;;;4941997;29;20023;-84
2021/10/03 00:38:04;;;;;;;1.08;1.00;;;16.60;99.90;;;;;;4955473;28;20027;-85
2021/10/03 00:40:31;;;;;;;1.48;1.02;;;16.70;99.90;;;;;;4949346;29;20051;-82
2021/10/03 00:43:00;;;;;;;1.92;1.10;;;16.70;99.90;;;;;;4936194;29;20036;-83
2021/10/03 00:45:26;;;;;;;1.52;1.20;;;16.70;99.90;;;;;;4936790;29;20024;-79
2021/10/03 00:47:52;;;;;;;2.50;1.20;;;16.70;99.90;;;;;;4935993;29;20180;-78
2021/10/03 00:50:18;;;;;;;1.80;1.17;;;16.70;99.90;;;;;;4936637;29;20143;-84
2021/10/03 00:52:45;;;;;;;3.30;0.90;;;16.70;99.90;;;;;;4936867;29;20040;-87
2021/10/03 00:55:13;;;;;;;1.30;0.90;;;16.70;99.90;;;;;;4936750;29;20028;-81
2021/10/03 00:57:43;;;;;;;2.75;1.17;;;16.70;99.90;;;;;;4936236;29;20039;-81
2021/10/03 01:00:12;;;;;;;1.08;0.85;;;16.70;99.90;;;;;;4917404;29;20190;-82
2021/10/03 01:02:38;;;;;;;1.95;0.90;;;16.80;99.90;;;;;;4933672;29;20032;-82
2021/10/03 01:05:07;;;;;;;1.05;1.00;;;16.70;99.90;;;;;;4936673;29;20058;-83
2021/10/03 01:07:33;;;;;;;1.10;0.95;;;16.80;99.90;;;;;;4934660;29;20030;-78
2021/10/03 01:09:58;;;;;;;1.15;1.05;;;16.80;99.90;;;;;;4922602;29;20047;-88
2021/10/03 01:12:25;;;;;;;0.90;0.85;;;16.80;99.90;;;;;;4934209;29;20387;-85
2021/10/03 01:14:50;;;;;;;2.30;0.90;;;16.80;99.90;;;;;;4932531;29;20032;-80
2021/10/03 01:17:16;;;;;;;3.17;1.00;;;16.80;99.90;;;;;;4935676;29;20095;-84
2021/10/03 01:19:42;;;;;;;1.85;1.20;;;16.80;99.90;;;;;;4934420;29;20028;-83
2021/10/03 01:22:07;;;;;;;3.03;0.95;;;16.80;99.90;;;;;;4932925;29;20032;-83
2021/10/03 01:24:33;;;;;;;2.58;1.00;;;16.80;99.90;;;;;;4934859;29;20040;-82
2021/10/03 01:27:01;;;;;;;2.38;1.23;;;16.80;99.90;;;;;;4931013;29;20399;-82
2021/10/03 01:29:28;;;;;;;1.15;1.05;;;16.80;99.90;;;;;;4935698;29;20035;-85
2021/10/03 01:31:54;;;;;;;2.25;1.30;;;16.80;99.90;;;;;;4936950;29;20079;-81
2021/10/03 01:34:19;;;;;;;1.52;1.15;;;16.80;99.90;;;;;;4936158;29;20524;-85
2021/10/03 01:36:45;;;;;;;2.70;1.20;;;16.80;99.90;;;;;;4936925;29;20496;-84
2021/10/03 01:39:11;;;;;;;3.00;1.10;;;16.80;99.90;;;;;;4936461;29;20157;-84
2021/10/03 01:41:37;;;;;;;1.50;0.90;;;16.80;99.90;;;;;;4936585;29;20122;-82
2021/10/03 01:44:03;;;;;;;3.92;0.85;;;16.80;99.90;;;;;;4934510;29;20024;-91
2021/10/03 01:46:28;;;;;;;3.03;1.20;;;16.80;99.90;;;;;;4933260;29;20032;-82
2021/10/03 01:48:54;;;;;;;2.15;1.10;;;16.80;99.90;;;;;;4935178;29;20090;-82
2021/10/03 01:51:20;;;;;;;1.65;0.95;;;16.80;99.90;;;;;;4934180;29;20035;-80
2021/10/03 01:53:51;;;;;;;1.33;0.90;;;16.80;99.90;;;;;;4925646;29;20028;-80
2021/10/03 01:56:18;;;;;;;3.13;0.85;;;16.80;99.90;;;;;;4916230;29;20028;-80
2021/10/03 01:58:51;;;;;;;4.75;1.00;;;16.80;99.90;;;;;;4933358;29;20028;-81
2021/10/03 02:01:33;;;;;;;0.88;0.88;;;16.80;99.90;;;;;;4918928;29;20036;-82
2021/10/03 02:03:59;;;;;;;;;;;16.80;99.90;;;;;;4934775;29;20111;-85
2021/10/03 02:06:25;;;;;;;0.90;0.90;;;16.80;99.90;;;;;;4934527;29;19932;-81
2021/10/03 02:08:54;;;;;;;2.47;1.15;;;16.80;99.90;;;;;;4935797;29;20036;-82
2021/10/03 02:11:20;;;;;;;1.77;1.02;;;16.70;99.90;;;;;;4934416;29;20047;-83
2021/10/03 02:13:46;;;;;;;1.58;1.00;;;16.70;99.90;;;;;;4936140;29;20445;-81
2021/10/03 02:16:12;;;;;;;1.50;1.00;;;16.80;99.90;;;;;;4935647;29;20024;-81
2021/10/03 02:18:39;;;;;;;1.25;1.00;;;16.80;99.90;;;;;;4917961;29;20090;-80
2021/10/03 02:21:06;;;;;;;1.60;1.10;;;16.80;99.90;;;;;;4934517;29;20384;-81
2021/10/03 02:23:34;;;;;;;0.82;0.82;;;16.80;99.90;;;;;;4936073;29;20031;-82
2021/10/03 02:26:00;;;;;;;1.38;0.90;;;16.80;99.90;;;;;;4935177;29;20020;-80
2021/10/03 02:28:27;;;;;;;1.30;1.20;;;16.80;99.90;;;;;;4934680;29;20047;-81
2021/10/03 02:30:57;;;;;;;3.15;1.10;;;16.80;99.90;;;;;;4934420;29;20426;-80
2021/10/03 02:33:22;;;;;;;1.23;1.13;;;16.80;99.90;;;;;;4935138;29;20038;-82
2021/10/03 02:35:49;;;;;;;3.55;1.52;;;16.80;99.90;;;;;;4935341;29;20122;-81
2021/10/03 02:38:18;;;;;;;1.10;0.90;;;16.80;99.90;;;;;;4934195;29;20055;-79
2021/10/03 02:40:45;;;;;;;4.68;1.27;;;16.80;99.90;;;;;;4934397;29;20032;-80
2021/10/03 02:43:12;;;;;;;1.70;1.05;;;16.80;99.90;;;;;;4935222;29;20034;-80
2021/10/03 02:45:52;;;;;;;2.65;0.85;;;16.80;99.90;;;;;;4934502;29;20027;-79
2021/10/03 02:48:20;;;;;;;1.15;1.05;;;16.80;99.90;;;;;;4928797;29;20488;-84
2021/10/03 02:50:47;;;;;;;2.70;1.15;;;16.80;99.90;;;;;;4934439;29;20028;-80
2021/10/03 02:53:15;;;;;;;1.50;1.20;;;16.80;99.90;;;;;;4933823;29;20499;-80
2021/10/03 02:55:41;;;;;;;1.10;1.00;;;16.80;99.90;;;;;;4933378;29;20023;-82
2021/10/03 02:58:07;;;;;;;1.23;1.10;;;16.80;99.90;;;;;;4934329;29;20042;-79
2021/10/03 03:00:37;;;;;;;3.38;1.30;;;16.80;99.90;;;;;;4934882;29;20050;-81
2021/10/03 03:03:03;;;;;;;2.97;1.50;;;16.90;99.90;;;;;;4934013;29;20023;-81
2021/10/03 03:05:28;;;;;;;2.90;1.10;;;16.80;99.90;;;;;;4934429;29;20020;-80
2021/10/03 03:07:54;;;;;;;4.63;1.30;;;16.80;99.90;;;;;;4932690;29;20049;-81
2021/10/03 03:10:20;;;;;;;1.15;1.00;;;16.80;99.90;;;;;;4935240;29;20031;-80
2021/10/03 03:12:46;;;;;;;1.48;1.17;;;16.80;99.90;;;;;;4933941;29;20028;-80
2021/10/03 03:15:11;;;;;;;1.10;1.00;;;16.80;99.90;;;;;;4932780;29;20023;-80
2021/10/03 03:17:37;;;;;;;1.58;1.30;;;16.80;99.90;;;;;;4933701;29;20035;-80
2021/10/03 03:20:05;;;;;;;5.32;1.25;;;16.80;99.90;;;;;;4933958;29;20087;-81
2021/10/03 03:22:31;;;;;;;1.67;1.20;;;16.80;99.90;;;;;;4946492;28;20491;-81
2021/10/03 03:24:56;;;;;;;1.98;1.38;;;16.80;99.90;;;;;;4931674;29;20020;-82
2021/10/03 03:27:22;;;;;;;2.35;1.50;;;16.90;99.90;;;;;;4932295;29;20503;-79
2021/10/03 03:29:48;;;;;;;1.88;1.30;;;16.90;99.90;;;;;;4931751;29;20032;-80
2021/10/03 03:32:13;;;;;;;1.20;1.10;;;16.80;99.90;;;;;;4933207;29;20055;-81
2021/10/03 03:34:39;;;;;;;2.55;1.50;;;16.90;99.90;;;;;;4933622;29;20495;-81
2021/10/03 03:37:05;;;;;;;2.15;1.48;;;16.90;99.90;;;;;;4932311;29;20028;-80
2021/10/03 03:39:31;;;;;;;2.83;1.55;;;16.90;99.90;;;;;;4933459;29;20127;-82
2021/10/03 03:41:56;;;;;;;1.67;1.50;;;16.90;99.90;;;;;;4934385;29;20252;-85
2021/10/03 03:44:22;;;;;;;2.05;1.50;;;16.90;99.90;;;;;;4933245;29;20388;-83
2021/10/03 03:46:48;;;;;;;2.08;1.65;;;16.90;99.90;;;;;;4933670;29;20177;-82
2021/10/03 03:49:14;;;;;;;3.65;1.50;;;16.90;99.90;;;;;;4933065;29;20072;-87
2021/10/03 03:51:40;;;;;;;1.40;1.30;;;16.90;99.90;;;;;;4933019;29;20028;-85
2021/10/03 03:54:06;;;;;;;4.93;1.63;;;16.90;99.90;;;;;;4934631;29;20059;-86
2021/10/03 03:56:31;;;;;;;1.83;1.23;;;16.90;99.90;;;;;;4935654;29;20385;-84
2021/10/03 03:58:58;;;;;;;1.02;0.90;;;16.80;99.90;;;;;;4934045;29;20031;-81
2021/10/03 04:01:23;;;;;;;1.95;0.98;;;16.80;99.90;;;;;;4933844;29;20034;-85
2021/10/03 04:03:49;;;;;;;0.77;0.77;;;16.70;99.90;;;;;;4934097;29;20024;-85
2021/10/03 04:06:14;;;;;;;1.73;0.82;;;16.60;99.90;;;;;;4934377;29;20079;-80
2021/10/03 04:08:40;;;;;;;2.60;0.70;;;16.50;99.90;;;;;;4933495;29;20094;-82
2021/10/03 04:11:07;;;;;;;1.25;0.73;;;16.40;99.90;;;;;;4935199;29;20024;-82
2021/10/03 04:13:33;;;;;;;1.65;0.60;;;16.40;99.90;;;;;;4938868;29;20020;-82
2021/10/03 04:15:59;;;;;;;0.50;0.50;;;16.30;99.90;;;;;;4934264;29;20083;-84
2021/10/03 04:18:25;;;;;;;0.50;0.50;;;16.30;99.90;;;;;;4935712;29;20480;-81
2021/10/03 04:20:51;;;;;;;1.08;0.57;;;16.20;99.90;;;;;;4935180;29;20038;-81
2021/10/03 04:23:17;;;;;;;1.50;0.80;;;16.20;99.90;;;;;;4937206;29;20032;-81
2021/10/03 04:25:42;;;;;;;0.55;0.50;;;16.10;99.90;;;;;;4933916;29;20028;-80
2021/10/03 04:28:10;;;;;;;1.60;0.50;;;16.10;99.90;;;;;;4934908;29;20070;-81
2021/10/03 04:30:36;;;;;;;0.77;0.50;;;16.10;99.90;;;;;;4935293;29;20134;-80
2021/10/03 04:33:02;;;;;;;0.85;0.60;;;16.00;99.90;;;;;;4935432;29;20043;-80
2021/10/03 04:35:28;;;;;;;1.27;0.80;;;16.00;99.90;;;;;;4936263;29;20370;-82
2021/10/03 04:37:54;;;;;;;0.52;0.52;;;15.90;99.90;;;;;;4935396;29;20581;-81
2021/10/03 04:40:43;;;;;;;0.65;0.65;;;15.90;99.90;;;;;;4934620;29;20114;-81
2021/10/03 04:43:10;;;;;;;0.63;0.63;;;15.90;99.90;;;;;;4935203;29;20465;-81
2021/10/03 04:45:36;;;;;;;0.50;0.50;;;15.80;99.90;;;;;;4920742;29;20094;-81
2021/10/03 04:48:26;;;;;;;0.60;0.50;;;15.80;99.90;;;;;;4935664;29;20400;-81
2021/10/03 04:50:54;;;;;;;0.52;0.47;;;15.80;99.90;;;;;;4921487;29;20059;-80
2021/10/03 04:53:20;;;;;;;2.25;0.80;;;15.80;99.90;;;;;;4952057;28;20051;-81
2021/10/03 04:55:48;;;;;;;1.20;0.73;;;15.80;99.90;;;;;;4934463;29;20032;-81
2021/10/03 04:58:14;;;;;;;1.30;0.60;;;15.70;99.90;;;;;;4936853;29;20046;-81
2021/10/03 05:00:40;;;;;;;1.10;0.60;;;15.70;99.90;;;;;;4931730;29;20028;-80
2021/10/03 05:03:05;;;;;;;0.65;0.60;;;15.60;99.90;;;;;;4936438;29;20039;-81
2021/10/03 05:05:31;;;;;;;2.33;0.68;;;15.60;99.90;;;;;;4936199;29;20028;-80
2021/10/03 05:07:57;;;;;;;0.60;0.60;;;15.60;99.90;;;;;;4933681;29;20131;-81
2021/10/03 05:10:22;;;;;;;0.85;0.70;;;15.70;99.90;;;;;;4935508;29;20102;-80
2021/10/03 05:12:48;;;;;;;0.85;0.80;;;15.70;99.90;;;;;;4935728;29;20547;-80
2021/10/03 05:15:13;;;;;;;1.73;1.00;;;15.60;99.90;;;;;;4935247;29;20023;-80
2021/10/03 05:17:39;;;;;;;0.57;0.50;;;15.60;99.90;;;;;;4935828;29;20023;-81
2021/10/03 05:20:05;;;;;;;1.02;0.90;;;15.60;99.90;;;;;;4936708;29;20028;-81
2021/10/03 05:22:31;;;;;;;1.77;0.70;;;15.60;99.90;;;;;;4936562;29;20024;-81
2021/10/03 05:24:56;;;;;;;1.00;0.90;;;15.60;99.90;;;;;;4936535;29;20050;-80
2021/10/03 05:27:22;;;;;;;1.40;0.80;;;15.60;99.90;;;;;;4936924;29;20060;-81
2021/10/03 05:29:47;;;;;;;0.70;0.70;;;15.60;99.90;;;;;;4934748;29;20036;-81
2021/10/03 05:32:13;;;;;;;1.00;0.90;;;15.60;99.90;;;;;;4935489;29;20058;-81
2021/10/03 05:34:39;;;;;;;2.05;0.80;;;15.60;99.90;;;;;;4936977;29;20577;-81
2021/10/03 05:37:05;;;;;;;2.00;0.90;;;15.60;99.90;;;;;;4934429;29;20086;-79
2021/10/03 05:39:31;;;;;;;1.92;0.95;;;15.60;99.90;;;;;;4936942;29;20037;-82
2021/10/03 05:41:56;;;;;;;0.90;0.90;;;15.60;99.90;;;;;;4936214;29;20404;-80
2021/10/03 05:44:22;;;;;;;1.40;0.80;;;15.60;99.90;;;;;;4932707;29;20031;-80
2021/10/03 05:46:48;;;;;;;1.05;0.80;;;15.60;99.90;;;;;;4950017;29;20135;-78
2021/10/03 05:49:13;;;;;;;1.67;1.15;;;15.60;99.90;;;;;;4933949;29;20042;-78
2021/10/03 05:51:39;;;;;;;1.83;1.20;;;15.60;99.90;;;;;;4935306;29;20028;-79
2021/10/03 05:54:05;;;;;;;1.58;0.80;;;15.50;99.90;;;;;;4933790;29;20204;-84
2021/10/03 05:56:31;;;;;;;1.13;0.70;;;15.50;99.90;;;;;;4933510;29;20034;-81
2021/10/03 05:58:57;;;;;;;1.08;1.00;;;15.50;99.90;;;;;;4933586;29;20468;-79
2021/10/03 06:01:22;;;;;;;1.17;0.90;;;15.50;99.90;;;;;;4938325;29;20019;-77
2021/10/03 06:03:48;;;;;;;1.05;0.90;;;15.50;99.90;;;;;;4953433;28;20030;-79
2021/10/03 06:06:14;;;;;;;1.40;0.90;;;15.40;99.90;;;;;;4941959;29;20039;-78
2021/10/03 06:08:39;;;;;;;2.95;1.90;;;15.40;99.90;;;;;;4935535;29;20099;-78
2021/10/03 06:11:05;;;;;;;2.50;1.85;;;15.40;99.90;;;;;;4935076;29;20035;-79
2021/10/03 06:13:31;;;;;;;1.40;1.30;;;15.40;99.90;;;;;;4934712;29;20075;-78
2021/10/03 06:15:58;;;;;;;3.00;1.40;;;15.40;99.90;;;;;;4933727;29;20024;-80
2021/10/03 06:18:25;;;;;;;2.05;0.90;;;15.30;99.90;;;;;;4934894;29;20027;-80
2021/10/03 06:20:51;;;;;;;0.70;0.70;;;15.30;99.90;;;;;;4935335;29;20036;-82
2021/10/03 06:23:17;;;;;;;0.98;0.80;;;15.30;99.90;;;;;;4934478;29;20380;-81
2021/10/03 06:25:42;;;;;;;0.82;0.82;;;15.20;99.90;;;;;;4933986;29;20480;-81
2021/10/03 06:28:08;;;;;;;1.92;1.02;;;15.20;99.90;;;;;;4932573;29;20039;-79
2021/10/03 06:30:35;;;;;;;0.85;0.75;;;15.20;99.90;;;;;;4931600;29;20087;-84
2021/10/03 06:33:04;;;;;;;0.77;0.77;;;15.20;99.90;;;;;;4946616;28;20027;-82
2021/10/03 06:35:30;;;;;;;1.63;0.85;;;15.20;99.90;;;;;;4933659;29;20023;-80
2021/10/03 06:37:57;;;;;;;1.10;1.00;;;15.20;99.90;;;;;;4937138;29;20035;-79
2021/10/03 06:40:23;;;;;;;1.10;1.00;;;15.30;99.90;;;;;;4954307;28;20354;-79
2021/10/03 06:42:48;;;;;;;1.02;0.70;;;15.30;99.90;;;;;;4948823;29;20083;-79
2021/10/03 06:45:14;;;;;;;0.70;0.70;;;15.30;99.90;;;;;;4934172;29;20036;-81
2021/10/03 06:47:40;;;;;;;0.80;0.77;;;15.40;99.90;;;;;;4933030;29;20032;-82
2021/10/03 06:50:06;;;;;;;0.90;0.90;;;15.30;99.90;;;;;;4933482;29;20059;-85
2021/10/03 06:52:32;;;;;;;1.58;0.80;;;15.40;99.90;;;;;;4933780;29;20055;-86
2021/10/03 06:54:57;;;;;;;2.25;1.17;;;15.40;99.90;;;;;;4932676;29;20078;-77
2021/10/03 06:57:23;;;;;;;1.10;1.00;;;15.30;99.90;;;;;;4933225;29;20716;-78
2021/10/03 06:59:49;;;;;;;1.13;1.02;;;15.30;99.90;;;;;;4932650;29;20158;-78
2021/10/03 07:02:24;;;;;;;1.85;0.98;;;15.30;99.90;;;;;;4933973;29;20023;-84
2021/10/03 07:04:50;;;;;;;0.90;0.90;;;15.30;99.90;;;;;;4933151;29;20176;-81
2021/10/03 07:07:16;;;;;;;1.85;1.38;;;15.30;99.90;;;;;;4931612;29;20684;-82
2021/10/03 07:09:42;;;;;;;1.30;1.20;;;15.30;99.90;;;;;;4933333;29;20035;-82
2021/10/03 07:12:07;;;;;;;0.82;0.82;;;15.40;99.90;;;;;;4934534;29;20024;-83
2021/10/03 07:14:33;;;;;;;1.20;0.85;;;15.30;99.90;;;;;;4934264;29;20385;-86
2021/10/03 07:16:58;;;;;;;1.90;1.10;;;15.40;99.90;;;;;;4937785;29;20055;-88
2021/10/03 07:19:28;;;;;;;1.80;1.25;;;15.30;99.90;;;;;;4934072;29;20032;-87
2021/10/03 07:21:54;;;;;;;1.08;0.98;;;15.30;99.90;;;;;;4934490;29;20059;-84
2021/10/03 07:24:19;;;;;;;1.20;1.10;;;15.40;99.90;;;;;;4934238;29;20476;-91
2021/10/03 07:26:45;;;;;;;1.40;1.27;;;15.30;99.90;;;;;;4933689;29;20531;-82
2021/10/03 07:29:13;;;;;;;1.70;1.40;;;15.30;99.90;;;;;;4932893;29;20091;-91
2021/10/03 07:31:38;;;;;;;1.38;0.93;;;15.30;99.90;;;;;;4933017;29;20103;-88
2021/10/03 07:34:04;;;;;;;0.80;0.80;;;15.30;99.90;;;;;;4932838;29;20039;-87
2021/10/03 07:36:30;;;;;;;1.05;1.00;;;15.30;99.90;;;;;;4933377;29;20110;-83
2021/10/03 07:38:55;;;;;;;0.90;0.90;;;15.20;99.90;;;;;;4945301;29;20539;-80
2021/10/03 07:41:21;;;;;;;0.80;0.80;;;15.30;99.90;;;;;;4952810;28;20486;-76
2021/10/03 07:43:48;;;;;;;1.05;0.80;;;15.20;99.90;;;;;;4939621;29;20469;-79
2021/10/03 07:46:16;;;;;;;1.25;1.00;;;15.30;99.90;;;;;;4932304;29;20036;-83
2021/10/03 07:48:42;;;;;;;0.85;0.85;;;15.30;99.90;;;;;;4933149;29;20031;-85
2021/10/03 07:51:10;;;;;;;1.20;0.93;;;15.30;99.90;;;;;;4931923;29;20082;-86
2021/10/03 07:53:36;;;;;;;2.83;1.42;;;15.30;99.90;;;;;;4932775;29;20078;-80
2021/10/03 07:56:01;;;;;;;2.45;1.08;;;15.30;99.90;;;;;;4933019;29;20492;-89
2021/10/03 07:58:27;;;;;;;0.80;0.80;;;15.20;99.90;;;;;;4933255;29;20055;-83
2021/10/03 08:00:52;;;;;;;1.30;1.02;;;15.20;99.90;;;;;;4933468;29;20024;-83
2021/10/03 08:03:18;;;;;;;1.20;0.95;;;15.20;99.90;;;;;;4931915;29;20042;-84
2021/10/03 08:05:44;;;;;;;1.52;1.20;;;15.20;99.90;;;;;;4932125;29;20023;-79
2021/10/03 08:08:10;;;;;;;0.90;0.85;;;15.20;99.90;;;;;;4932202;29;20058;-80
2021/10/03 08:10:37;;;;;;;0.82;0.82;;;15.20;99.90;;;;;;4932308;29;20020;-82
2021/10/03 08:13:03;;;;;;;2.10;0.98;;;15.10;99.90;;;;;;4931695;29;20074;-83
2021/10/03 08:15:29;;;;;;;1.00;0.90;;;15.10;99.90;;;;;;4933054;29;20024;-80
2021/10/03 08:17:55;;;;;;;19.13;2.58;;;15.10;99.90;;;;;;4931915;29;20699;-80
2021/10/03 08:20:22;;;;;;;3.20;2.85;;;15.10;99.90;;;;;;4933444;29;20059;-79
2021/10/03 08:22:48;;;;;;;3.53;3.22;;;15.20;99.90;;;;;;4932018;29;20047;-79
2021/10/03 08:25:14;;;;;;;1.85;1.75;;;15.10;99.90;;;;;;4931546;29;20032;-84
2021/10/03 08:27:40;;;;;;;1.30;1.20;;;15.10;99.90;;;;;;4932933;29;20024;-79
2021/10/03 08:30:07;;;;;;;1.30;1.20;;;15.10;99.90;;;;;;4932196;29;20028;-84
2021/10/03 08:32:33;;;;;;;1.15;1.13;;;15.10;99.90;;;;;;4931747;29;20032;-80
2021/10/03 08:34:59;;;;;;;1.20;1.10;;;15.10;99.90;;;;;;4932003;29;20122;-80
2021/10/03 08:37:24;;;;;;;1.80;1.67;;;15.10;99.90;;;;;;4932312;29;20027;-82
2021/10/03 08:39:52;;;;;;;1.13;1.08;;;15.10;99.90;;;;;;4933933;29;20036;-84
2021/10/03 08:42:18;;;;;;;1.45;0.98;;;15.10;99.90;;;;;;4932465;29;20111;-82
2021/10/03 08:44:44;;;;;;;1.25;1.10;;;15.00;99.90;;;;;;4933790;29;20043;-83
2021/10/03 08:47:10;;;;;;;0.98;0.98;;;14.90;99.90;;;;;;4931913;29;20023;-81
2021/10/03 08:49:38;;;;;;;1.98;1.35;;;14.90;99.90;;;;;;4932107;29;20377;-85
2021/10/03 08:52:05;;;;;;;2.22;1.40;;;14.80;99.90;;;;;;4931460;29;20063;-82
2021/10/03 08:54:36;;;;;;;1.10;1.00;;;14.80;99.90;;;;;;4932156;29;20024;-80
2021/10/03 08:57:02;;;;;;;0.97;0.90;;;14.70;99.90;;;;;;4933303;29;20523;-87
2021/10/03 08:59:27;;;;;;;2.38;0.90;;;14.70;99.90;;;;;;4935206;29;20043;-90
2021/10/03 09:01:55;;;;;;;1.52;0.90;;;14.70;99.90;;;;;;4937541;29;20115;-79
2021/10/03 09:04:39;;;;;;;2.10;1.20;;;14.60;99.90;;;;;;4936649;29;20024;-83
2021/10/03 09:07:16;;;;;;;1.38;1.17;;;14.70;99.90;;;;;;4935233;29;20020;-82
2021/10/03 09:09:59;;;;;;;1.50;1.00;;;14.60;99.90;;;;;;4937341;29;20039;-83
2021/10/03 09:12:36;;;;;;;0.80;0.80;;;14.60;99.90;;;;;;4935721;29;20518;-82
2021/10/03 09:15:15;;;;;;;0.82;0.77;;;14.60;99.90;;;;;;4934863;29;20054;-79
2021/10/03 09:17:47;;;;;;;0.85;0.85;;;14.60;99.90;;;;;;4934639;29;20083;-82
2021/10/03 09:20:20;;;;;;;0.77;0.77;;;14.60;99.90;;;;;;4935367;29;20035;-80
2021/10/03 09:23:01;;;;;;;1.98;1.00;;;14.60;99.90;;;;;;4921937;29;20047;-77
2021/10/03 09:25:48;;;;;;;1.30;0.90;;;14.60;99.90;;;;;;4935120;29;20032;-78
2021/10/03 09:28:25;;;;;;;1.60;1.00;;;14.60;99.90;;;;;;4934991;29;20322;-77
2021/10/03 09:31:05;;;;;;;1.10;1.00;;;14.60;99.90;;;;;;4934959;29;20050;-77
2021/10/03 09:33:53;;;;;;;1.45;1.10;;;14.60;99.90;;;;;;4934859;29;20476;-81
2021/10/03 09:36:25;;;;;;;1.13;1.02;;;14.50;99.90;;;;;;4934693;29;20027;-76
2021/10/03 09:38:56;;;;;;;1.15;1.05;;;14.50;99.90;;;;;;4946335;28;20026;-75
2021/10/03 09:41:27;;;;;;;2.35;1.25;;;14.50;99.90;;;;;;4952561;29;20032;-78
2021/10/03 09:44:19;;;;;;;1.38;1.10;;;14.50;99.90;;;;;;4934434;29;20031;-82
2021/10/03 09:46:51;;;;;;;;;;;14.50;99.90;;;;;;4933165;29;20039;-78
2021/10/03 09:49:26;;;;;;;1.10;1.00;;;14.50;99.90;;;;;;4934558;29;19966;-77
2021/10/03 09:51:52;;;;;;;0.93;0.90;;;14.50;99.90;;;;;;4933449;29;20024;-76
2021/10/03 09:54:19;;;;;;;0.88;0.88;;;14.50;99.90;;;;;;4935542;29;20039;-75
2021/10/03 09:56:46;;;;;;;0.80;0.80;;;14.50;99.90;;;;;;4935106;29;20115;-75
2021/10/03 09:59:12;;;;;;;0.80;0.80;;;14.50;99.90;;;;;;4933491;29;20383;-78
2021/10/03 10:01:46;;;;;;;1.55;0.90;;;14.60;99.90;;;;;;4933608;29;20118;-76
2021/10/03 10:04:15;;;;;;;0.50;0.50;;;14.60;99.90;;;;;;4930178;29;20489;-76
2021/10/03 10:06:43;;;;;;;0.50;0.50;;;14.60;99.90;;;;;;4916251;29;20083;-77
2021/10/03 10:09:19;;;;;;;0.80;0.52;;;14.70;99.90;;;;;;4913046;29;20043;-77
2021/10/03 10:12:01;;;;;;;0.63;0.63;;;14.80;99.90;;;;;;4912717;29;20032;-77
2021/10/03 10:14:47;;;;;;;1.02;0.88;;;14.80;99.90;;;;;;4929928;29;20126;-77
2021/10/03 10:17:29;;;;;;;0.80;0.80;;;14.90;99.90;;;;;;4931973;29;20644;-77
2021/10/03 10:19:55;;;;;;;;;;;14.90;99.90;;;;;;4931186;29;20038;-77
2021/10/03 10:22:35;;;;;;;4.68;0.68;;;15.00;99.90;;;;;;4929988;29;20428;-74
2021/10/03 10:25:07;;;;;;;0.70;0.70;;;15.00;99.90;;;;;;4929224;29;20039;-76
2021/10/03 10:27:32;;;;;;;1.38;0.82;;;15.10;99.90;;;;;;4932163;29;20095;-77
2021/10/03 10:30:01;;;;;;;1.30;1.08;;;15.20;99.90;;;;;;4930867;29;20464;-76
2021/10/03 10:32:33;;;;;;;1.58;0.80;;;15.30;99.90;;;;;;4931795;29;20054;-77
2021/10/03 10:35:09;;;;;;;5.55;3.72;;;15.30;99.90;;;;;;4913767;29;20142;-77
2021/10/03 10:37:49;;;;;;;3.28;1.67;;;15.30;99.90;;;;;;4932587;29;20051;-76
2021/10/03 10:40:24;;;;;;;1.33;1.23;;;15.30;99.90;;;;;;4934175;29;20041;-76
2021/10/03 10:43:01;;;;;;;0.85;0.85;;;15.30;99.90;;;;;;4932038;29;20059;-76
2021/10/03 10:45:27;;;;;;;0.57;0.57;;;15.40;99.90;;;;;;4930619;29;20032;-77
2021/10/03 10:48:13;;;;;;;0.50;0.50;;;15.40;99.90;;;;;;4931881;29;20082;-76
2021/10/03 10:50:44;;;;;;;1.02;0.60;;;15.40;99.90;;;;;;4929735;29;20035;-77
2021/10/03 10:53:31;;;;;;;;;;;15.40;99.90;;;;;;4930560;29;20040;-76
2021/10/03 10:56:17;;;;;;;0.50;0.50;;;15.50;99.90;;;;;;4929577;29;19917;-77
2021/10/03 10:58:51;;;;;;;0.60;0.60;;;15.50;99.90;;;;;;4930410;29;20032;-77
2021/10/03 11:01:34;;;;;;;0.52;0.52;;;15.50;99.90;;;;;;4928257;29;20385;-77
2021/10/03 11:04:01;;;;;;;0.70;0.70;;;15.50;99.90;;;;;;4920132;29;20461;-77
2021/10/03 11:06:26;;;;;;;0.63;0.63;;;15.60;99.90;;;;;;4916787;29;20472;-76
2021/10/03 11:08:58;;;;;;;0.80;0.80;;;15.60;99.90;;;;;;4928665;29;20038;-78
2021/10/03 11:11:33;;;;;;;1.40;1.20;;;15.60;99.90;;;;;;4930701;29;20114;-78
2021/10/03 11:14:01;;;;;;;1.10;1.00;;;15.70;99.90;;;;;;4928853;29;20126;-78
2021/10/03 11:16:37;;;;;;;2.97;0.73;;;15.70;99.90;;;;;;4929525;29;20608;-78
2021/10/03 11:19:22;;;;;;;0.80;0.80;;;15.80;99.90;;;;;;4931241;29;20393;-76
2021/10/03 11:22:07;;;;;;;0.82;0.82;;;15.80;99.90;;;;;;4928688;29;20024;-80
2021/10/03 11:24:50;;;;;;;0.80;0.80;;;15.80;99.90;;;;;;4928889;29;20038;-78
2021/10/03 11:27:20;;;;;;;0.88;0.73;;;15.80;99.90;;;;;;4929824;29;20082;-79
2021/10/03 11:29:55;;;;;;;0.63;0.63;;;15.80;99.90;;;;;;4930441;29;20373;-79
2021/10/03 11:32:38;;;;;;;0.80;0.80;;;15.80;99.90;;;;;;4930514;29;20055;-79
2021/10/03 11:35:11;;;;;;;2.47;1.20;;;15.80;99.90;;;;;;4924957;29;20092;-83
2021/10/03 11:37:39;;;;;;;1.35;1.25;;;15.80;99.90;;;;;;4928694;29;20032;-80
2021/10/03 11:40:22;;;;;;;0.85;0.85;;;15.90;99.90;;;;;;4951406;29;20083;-79
2021/10/03 11:42:57;;;;;;;1.95;1.20;;;15.90;99.90;;;;;;4949447;28;20171;-81
2021/10/03 11:45:33;;;;;;;1.45;1.35;;;16.00;99.90;;;;;;4950188;29;20027;-80
2021/10/03 11:48:01;;;;;;;3.70;1.20;;;16.00;99.90;;;;;;4929847;29;20094;-77
2021/10/03 11:50:45;;;;;;;2.28;1.33;;;16.00;99.90;;;;;;4930388;29;20054;-78
2021/10/03 11:53:24;;;;;;;1.38;1.23;;;16.10;99.90;;;;;;4930593;29;20123;-77
2021/10/03 11:56:15;;;;;;;1.25;1.15;;;16.10;99.90;;;;;;4929420;29;20039;-80
2021/10/03 11:58:45;;;;;;;1.70;1.20;;;16.00;99.90;;;;;;4929645;29;20027;-77
2021/10/03 12:01:12;;;;;;;1.10;1.10;;;16.00;99.90;;;;;;4929650;29;20122;-86
2021/10/03 12:03:51;;;;;;;0.98;0.98;;;16.00;99.90;;;;;;4928992;29;20504;-78
2021/10/03 12:06:21;;;;;;;1.30;1.20;;;16.00;99.90;;;;;;4928009;29;20090;-78
2021/10/03 12:08:47;;;;;;;1.50;1.40;;;16.00;99.90;;;;;;4930472;29;20704;-78
2021/10/03 12:11:13;;;;;;;1.48;1.40;;;16.10;99.90;;;;;;4928997;29;20063;-78
2021/10/03 12:13:39;;;;;;;1.90;1.40;;;16.10;99.90;;;;;;4928928;29;20031;-78
2021/10/03 12:16:12;;;;;;;1.38;1.27;;;16.10;99.90;;;;;;4926729;29;20049;-78
2021/10/03 12:18:47;;;;;;;1.10;1.10;;;16.20;99.90;;;;;;4930975;29;20107;-78
2021/10/03 12:21:24;;;;;;;1.50;1.40;;;16.20;99.90;;;;;;4929498;29;20053;-79
2021/10/03 12:24:04;;;;;;;1.40;1.30;;;16.20;99.90;;;;;;4929056;29;20028;-78
2021/10/03 12:26:46;;;;;;;1.40;1.30;;;16.20;99.90;;;;;;4927219;29;20032;-79
2021/10/03 12:29:18;;;;;;;1.38;1.38;;;16.20;99.90;;;;;;4929558;29;20039;-78
2021/10/03 12:32:08;;;;;;;1.58;1.48;;;16.30;99.90;;;;;;4931631;29;20114;-78
2021/10/03 12:34:40;;;;;;;1.42;1.33;;;16.30;99.90;;;;;;4934061;29;20038;-79
2021/10/03 12:37:12;;;;;;;1.48;1.38;;;16.30;99.90;;;;;;4931455;29;20436;-77
2021/10/03 12:39:40;;;;;;;1.55;1.23;;;16.30;99.90;;;;;;4951622;29;20164;-78
2021/10/03 12:42:27;;;;;;;3.17;2.78;;;16.40;99.90;;;;;;4935228;29;20353;-78
2021/10/03 12:44:55;;;;;;;2.58;2.20;;;16.30;99.90;;;;;;4931993;29;20034;-78
2021/10/03 12:47:22;;;;;;;2.92;2.35;;;16.20;99.90;;;;;;4932158;29;20058;-79
2021/10/03 12:49:48;;;;;;;3.38;1.80;;;16.20;99.90;;;;;;4947867;29;20071;-80
2021/10/03 12:52:15;;;;;;;2.58;2.10;;;16.20;99.90;;;;;;4931939;29;20024;-79
2021/10/03 12:54:42;;;;;;;1.63;1.50;;;16.20;99.90;;;;;;4933459;29;20500;-80
2021/10/03 12:57:08;;;;;;;2.15;1.95;;;16.20;99.90;;;;;;4931872;29;20032;-79